This is the latest recevied weather packets stored in our database for station/object 9W2JBV-1. If no packets are shown the sender has not sent any weather packets the latest 10 day(s).
| Time | Temp. | Humidity | Pressure | Rain* | Wind** | Luminosity | Snow |
|---|---|---|---|---|---|---|---|
| 1777994576 | 31.11° C | 64% | 1017 hPa | - | - | - | - |
| 1777993376 | 31.11° C | 63% | 1016.9 hPa | - | - | - | - |
| 1777992176 | 31.11° C | 63% | 1016.7 hPa | - | - | - | - |
| 1777990976 | 31.67° C | 64% | 1016.6 hPa | - | - | - | - |
| 1777989775 | 31.67° C | 62% | 1016.4 hPa | - | - | - | - |
| 1777988575 | 31.67° C | 63% | 1016.2 hPa | - | - | - | - |
| 1777987375 | 31.67° C | 62% | 1016.1 hPa | - | - | - | - |
| 1777986175 | 31.67° C | 62% | 1016.2 hPa | - | - | - | - |
| 1777984977 | 31.67° C | 63% | 1016.1 hPa | - | - | - | - |
| 1777983777 | 31.67° C | 62% | 1015.6 hPa | - | - | - | - |
| 1777982575 | 31.67° C | 62% | 1015.2 hPa | - | - | - | - |
| 1777981375 | 31.67° C | 62% | 1014.9 hPa | - | - | - | - |
| 1777980175 | 31.11° C | 62% | 1014.6 hPa | - | - | - | - |
| 1777978974 | 31.67° C | 63% | 1015 hPa | - | - | - | - |
| 1777977774 | 31.67° C | 63% | 1014.9 hPa | - | - | - | - |
| 1777976574 | 31.67° C | 63% | 1015.1 hPa | - | - | - | - |
| 1777975374 | 31.67° C | 63% | 1015.1 hPa | - | - | - | - |
| 1777974174 | 31.11° C | 63% | 1014.6 hPa | - | - | - | - |
| 1777972974 | 31.11° C | 63% | 1014.1 hPa | - | - | - | - |
| 1777971774 | 31.67° C | 64% | 1014.2 hPa | - | - | - | - |
| 1777970574 | 31.67° C | 63% | 1013.4 hPa | - | - | - | - |
| 1777969374 | 32.22° C | 60% | 1014 hPa | - | - | - | - |
| 1777966973 | 34.44° C | 54% | 1013.5 hPa | - | - | - | - |
| 1777965773 | 34.44° C | 53% | 1013.6 hPa | - | - | - | - |
| 1777964573 | 33.89° C | 54% | 1013.9 hPa | - | - | - | - |
* Rain since midnight (hover to see other rain measurements)
** Current wind speed in m/s (hover to see current wind gust speed)